createdAt,value
2023-01-08T00:00:45.537Z,86.32
2023-01-08T00:01:45.504Z,86.42
2023-01-08T00:02:45.577Z,86.63
2023-01-08T00:03:45.651Z,86.57
2023-01-08T00:04:45.476Z,86.57
2023-01-08T00:05:45.479Z,86.63
2023-01-08T00:06:45.436Z,86.83
2023-01-08T00:07:45.445Z,86.77
2023-01-08T00:08:45.456Z,86.83
2023-01-08T00:09:45.421Z,87.04
2023-01-08T00:10:45.406Z,86.98
2023-01-08T00:11:45.404Z,87.18
2023-01-08T00:12:45.439Z,87.28
2023-01-08T00:13:45.367Z,87.34
2023-01-08T00:14:45.375Z,87.49
2023-01-08T00:15:45.361Z,87.49
2023-01-08T00:16:45.448Z,87.59
2023-01-08T00:17:45.320Z,87.70
2023-01-08T00:18:45.326Z,87.70
2023-01-08T00:19:45.332Z,87.90
2023-01-08T00:20:45.287Z,87.85
2023-01-08T00:21:45.292Z,87.85
2023-01-08T00:22:45.300Z,87.85
2023-01-08T00:23:45.264Z,87.96
2023-01-08T00:24:45.252Z,87.96
2023-01-08T00:25:45.248Z,87.85
2023-01-08T00:26:45.246Z,87.85
2023-01-08T00:27:45.246Z,87.76
2023-01-08T00:28:45.230Z,87.85
2023-01-08T00:29:45.228Z,87.65
2023-01-08T00:30:45.215Z,87.76
2023-01-08T00:31:45.186Z,87.76
2023-01-08T00:32:45.175Z,87.76
2023-01-08T00:33:45.212Z,87.76
2023-01-08T00:34:45.194Z,87.82
2023-01-08T00:35:45.163Z,87.82
2023-01-08T00:36:45.152Z,87.82
2023-01-08T00:37:45.120Z,87.82
2023-01-08T00:38:45.101Z,87.82
2023-01-08T00:39:45.105Z,87.20
2023-01-08T00:40:45.137Z,87.30
2023-01-08T00:41:45.101Z,87.61
2023-01-08T00:42:45.069Z,87.61
2023-01-08T00:43:45.062Z,87.47
2023-01-08T00:44:45.066Z,87.47
2023-01-08T00:45:45.173Z,87.16
2023-01-08T00:46:45.035Z,86.96
2023-01-08T00:47:45.054Z,87.16
2023-01-08T00:48:45.004Z,87.26
2023-01-08T00:49:45.013Z,86.96
2023-01-08T00:50:45.003Z,87.06
2023-01-08T00:51:44.983Z,87.06
2023-01-08T00:52:45.004Z,86.96
2023-01-08T00:53:44.970Z,87.06
2023-01-08T00:54:44.984Z,86.96
2023-01-08T00:55:44.991Z,86.96
2023-01-08T00:56:44.922Z,86.55
2023-01-08T00:57:44.941Z,86.55
2023-01-08T00:58:44.898Z,86.65
2023-01-08T00:59:44.902Z,86.65
2023-01-08T01:00:44.892Z,86.75
2023-01-08T01:01:44.999Z,86.96
2023-01-08T01:02:44.851Z,87.06
2023-01-08T01:03:44.951Z,87.06
2023-01-08T01:04:44.858Z,86.96
2023-01-08T01:05:44.865Z,87.06
2023-01-08T01:06:44.825Z,87.06
2023-01-08T01:07:44.829Z,86.85
2023-01-08T01:08:44.823Z,86.85
2023-01-08T01:09:44.806Z,86.96
2023-01-08T01:10:44.799Z,86.65
2023-01-08T01:11:44.796Z,86.65
2023-01-08T01:12:44.770Z,86.65
2023-01-08T01:13:44.747Z,86.55
2023-01-08T01:14:44.740Z,86.55
2023-01-08T01:15:44.755Z,86.55
2023-01-08T01:16:44.801Z,86.55
2023-01-08T01:17:44.714Z,86.75
2023-01-08T01:18:44.703Z,86.85
2023-01-08T01:19:44.687Z,86.85
2023-01-08T01:20:44.715Z,86.75
2023-01-08T01:21:44.664Z,86.75
2023-01-08T01:22:44.665Z,86.96
2023-01-08T01:23:44.654Z,87.06
2023-01-08T01:24:44.642Z,86.96
2023-01-08T01:25:45.888Z,86.85
2023-01-08T01:26:44.633Z,86.75
2023-01-08T01:27:44.624Z,86.85
2023-01-08T01:28:44.616Z,86.85
2023-01-08T01:29:44.582Z,86.85
2023-01-08T01:30:44.650Z,86.85
2023-01-08T01:31:44.588Z,86.65
2023-01-08T01:32:44.578Z,86.65
2023-01-08T01:33:44.542Z,86.65
2023-01-08T01:34:44.531Z,86.75
2023-01-08T01:35:44.524Z,86.96
2023-01-08T01:36:44.534Z,86.75
2023-01-08T01:37:44.497Z,86.85
2023-01-08T01:38:44.496Z,86.65
2023-01-08T01:39:44.480Z,86.55
2023-01-08T01:40:44.478Z,86.55
2023-01-08T01:41:44.482Z,86.44
2023-01-08T01:42:44.464Z,86.44
2023-01-08T01:43:44.472Z,86.55
2023-01-08T01:44:44.454Z,86.65
2023-01-08T01:45:44.544Z,86.79
2023-01-08T01:46:44.425Z,86.99
2023-01-08T01:47:44.429Z,87.10
2023-01-08T01:48:44.391Z,87.51
2023-01-08T01:49:44.409Z,87.51
2023-01-08T01:50:44.423Z,87.71
2023-01-08T01:51:44.374Z,87.61
2023-01-08T01:52:44.385Z,87.71
2023-01-08T01:53:44.332Z,87.82
2023-01-08T01:54:44.340Z,88.12
2023-01-08T01:55:44.319Z,88.12
2023-01-08T01:56:44.319Z,88.12
2023-01-08T01:57:44.316Z,88.02
2023-01-08T01:58:44.291Z,87.92
2023-01-08T01:59:44.280Z,87.92
2023-01-08T02:00:44.290Z,87.82
2023-01-08T02:01:44.431Z,87.92
2023-01-08T02:02:44.270Z,88.12
2023-01-08T02:03:44.269Z,88.33
2023-01-08T02:04:44.225Z,88.08
2023-01-08T02:05:44.231Z,87.92
2023-01-08T02:06:44.208Z,88.02
2023-01-08T02:07:44.273Z,87.98
2023-01-08T02:08:44.234Z,88.08
2023-01-08T02:09:44.182Z,88.29
2023-01-08T02:10:44.165Z,88.29
2023-01-08T02:11:44.155Z,88.29
2023-01-08T02:12:44.209Z,88.18
2023-01-08T02:13:44.147Z,87.98
2023-01-08T02:14:44.209Z,87.84
2023-01-08T02:15:44.114Z,87.63
2023-01-08T02:16:44.138Z,87.43
2023-01-08T02:17:44.085Z,87.08
2023-01-08T02:18:44.099Z,87.08
2023-01-08T02:19:44.155Z,87.08
2023-01-08T02:20:44.056Z,86.98
2023-01-08T02:21:44.072Z,86.77
2023-01-08T02:22:44.039Z,86.63
2023-01-08T02:23:44.087Z,86.32
2023-01-08T02:24:44.031Z,86.53
2023-01-08T02:25:44.038Z,86.43
2023-01-08T02:26:43.997Z,86.53
2023-01-08T02:27:43.985Z,87.04
2023-01-08T02:28:43.991Z,86.83
2023-01-08T02:29:44.061Z,86.73
2023-01-08T02:30:44.048Z,86.73
2023-01-08T02:31:43.948Z,86.94
2023-01-08T02:32:43.932Z,87.04
2023-01-08T02:33:43.936Z,87.14
2023-01-08T02:34:43.925Z,87.24
2023-01-08T02:35:43.969Z,87.55
2023-01-08T02:36:43.897Z,87.45
2023-01-08T02:37:43.896Z,87.35
2023-01-08T02:38:43.916Z,87.45
2023-01-08T02:39:43.893Z,87.55
2023-01-08T02:40:43.855Z,87.76
2023-01-08T02:41:43.934Z,87.85
2023-01-08T02:42:43.831Z,87.85
2023-01-08T02:43:43.844Z,87.96
2023-01-08T02:44:43.849Z,88.06
2023-01-08T02:45:43.842Z,88.26
2023-01-08T02:46:43.805Z,88.17
2023-01-08T02:47:43.784Z,88.37
2023-01-08T02:48:43.814Z,88.47
2023-01-08T02:49:43.782Z,88.68
2023-01-08T02:50:43.754Z,88.57
2023-01-08T02:51:43.740Z,88.68
2023-01-08T02:52:43.757Z,88.78
2023-01-08T02:53:43.769Z,88.78
2023-01-08T02:54:43.739Z,89.09
2023-01-08T02:55:43.697Z,89.18
2023-01-08T02:56:43.702Z,89.18
2023-01-08T02:57:43.689Z,89.18
2023-01-08T02:58:43.701Z,89.29
2023-01-08T02:59:43.680Z,89.70
2023-01-08T03:00:43.698Z,89.59
2023-01-08T03:01:43.777Z,89.80
2023-01-08T03:02:43.637Z,89.80
2023-01-08T03:03:43.641Z,90.00
2023-01-08T03:04:43.617Z,90.00
2023-01-08T03:05:43.608Z,90.31
2023-01-08T03:06:43.616Z,90.21
2023-01-08T03:07:43.589Z,90.31
2023-01-08T03:08:43.633Z,90.31
2023-01-08T03:09:43.554Z,90.21
2023-01-08T03:10:43.561Z,90.21
2023-01-08T03:11:43.563Z,90.41
2023-01-08T03:12:43.581Z,90.72
2023-01-08T03:13:43.514Z,90.62
2023-01-08T03:14:43.515Z,90.31
2023-01-08T03:15:43.516Z,90.25
2023-01-08T03:16:43.651Z,90.56
2023-01-08T03:17:43.474Z,90.45
2023-01-08T03:18:43.475Z,89.94
2023-01-08T03:19:43.457Z,90.30
2023-01-08T03:20:43.477Z,90.30
2023-01-08T03:21:43.506Z,90.39
2023-01-08T03:22:43.433Z,90.95
2023-01-08T03:23:43.472Z,91.46
2023-01-08T03:24:43.408Z,91.71
2023-01-08T03:25:43.400Z,92.12
2023-01-08T03:26:43.457Z,92.43
2023-01-08T03:27:43.371Z,92.74
2023-01-08T03:28:43.403Z,92.94
2023-01-08T03:29:43.380Z,93.19
2023-01-08T03:30:43.446Z,93.39
2023-01-08T03:31:43.348Z,93.49
2023-01-08T03:32:43.344Z,93.70
2023-01-08T03:33:43.338Z,93.90
2023-01-08T03:34:43.315Z,94.01
2023-01-08T03:35:43.325Z,94.01
2023-01-08T03:36:43.289Z,94.01
2023-01-08T03:37:43.278Z,94.21
2023-01-08T03:38:43.269Z,94.32
2023-01-08T03:39:43.268Z,94.52
2023-01-08T03:40:43.266Z,94.83
2023-01-08T03:41:43.255Z,94.62
2023-01-08T03:42:43.226Z,94.52
2023-01-08T03:43:43.228Z,94.32
2023-01-08T03:44:43.232Z,94.32
2023-01-08T03:45:43.266Z,94.52
2023-01-08T03:46:43.186Z,94.52
2023-01-08T03:47:43.183Z,94.32
2023-01-08T03:48:43.184Z,94.42
2023-01-08T03:49:43.174Z,94.83
2023-01-08T03:50:43.145Z,94.83
2023-01-08T03:51:43.146Z,94.93
2023-01-08T03:52:43.148Z,94.67
2023-01-08T03:53:43.107Z,95.24
2023-01-08T03:54:43.132Z,95.07
2023-01-08T03:55:43.114Z,94.77
2023-01-08T03:56:43.126Z,94.87
2023-01-08T03:57:43.081Z,95.07
2023-01-08T03:58:43.075Z,95.28
2023-01-08T03:59:43.051Z,94.87
2023-01-08T04:00:43.085Z,94.98
2023-01-08T04:01:43.106Z,95.28
2023-01-08T04:02:43.101Z,95.49
2023-01-08T04:03:43.007Z,95.74
2023-01-08T04:04:43.087Z,95.94
2023-01-08T04:05:43.006Z,96.25
2023-01-08T04:06:42.986Z,96.45
2023-01-08T04:07:42.996Z,96.25
2023-01-08T04:08:42.991Z,96.25
2023-01-08T04:09:42.968Z,96.25
2023-01-08T04:10:42.983Z,96.35
2023-01-08T04:11:42.932Z,96.45
2023-01-08T04:12:42.920Z,96.77
2023-01-08T04:13:42.915Z,96.66
2023-01-08T04:14:42.946Z,96.77
2023-01-08T04:15:42.920Z,96.97
2023-01-08T04:16:42.895Z,96.97
2023-01-08T04:17:42.893Z,97.07
2023-01-08T04:18:42.883Z,97.07
2023-01-08T04:19:42.871Z,97.17
2023-01-08T04:20:42.843Z,97.28
2023-01-08T04:21:42.840Z,97.32
2023-01-08T04:22:42.883Z,97.63
2023-01-08T04:23:42.799Z,97.63
2023-01-08T04:24:42.869Z,97.53
2023-01-08T04:25:42.812Z,97.53
2023-01-08T04:26:42.789Z,97.22
2023-01-08T04:27:42.761Z,97.32
2023-01-08T04:28:42.778Z,97.42
2023-01-08T04:29:42.783Z,97.38
2023-01-08T04:30:42.758Z,97.42
2023-01-08T04:31:42.722Z,97.48
2023-01-08T04:32:42.763Z,97.53
2023-01-08T04:33:42.712Z,97.38
2023-01-08T04:34:42.719Z,97.28
2023-01-08T04:35:42.689Z,97.38
2023-01-08T04:36:42.699Z,97.32
2023-01-08T04:37:42.671Z,97.17
2023-01-08T04:38:42.655Z,97.32
2023-01-08T04:39:42.668Z,97.28
2023-01-08T04:40:42.662Z,97.42
2023-01-08T04:41:42.640Z,97.53
2023-01-08T04:42:42.614Z,97.53
2023-01-08T04:43:42.646Z,97.48
2023-01-08T04:44:42.594Z,97.63
2023-01-08T04:45:42.614Z,97.63
2023-01-08T04:46:42.702Z,97.53
2023-01-08T04:47:42.565Z,97.58
2023-01-08T04:48:42.554Z,97.73
2023-01-08T04:49:42.536Z,97.58
2023-01-08T04:50:42.545Z,97.63
2023-01-08T04:51:42.531Z,97.79
2023-01-08T04:52:42.534Z,97.94
2023-01-08T04:53:42.508Z,97.73
2023-01-08T04:54:42.496Z,97.73
2023-01-08T04:55:42.477Z,97.79
2023-01-08T04:56:42.495Z,97.73
2023-01-08T04:57:42.469Z,97.69
2023-01-08T04:58:42.480Z,97.79
2023-01-08T04:59:42.449Z,97.48
2023-01-08T05:00:42.434Z,97.69
2023-01-08T05:01:42.617Z,97.58
2023-01-08T05:02:42.761Z,97.69
2023-01-08T05:03:42.435Z,97.69
2023-01-08T05:04:42.421Z,97.79
2023-01-08T05:05:42.388Z,97.89
2023-01-08T05:06:42.392Z,97.99
2023-01-08T05:07:42.378Z,98.10
2023-01-08T05:08:42.353Z,98.10
2023-01-08T05:09:42.329Z,98.10
2023-01-08T05:10:42.335Z,98.30
2023-01-08T05:11:42.338Z,98.10
2023-01-08T05:12:42.315Z,97.95
2023-01-08T05:13:42.299Z,97.95
2023-01-08T05:14:42.296Z,98.16
2023-01-08T05:15:42.374Z,97.85
2023-01-08T05:16:42.306Z,97.95
2023-01-08T05:17:42.274Z,98.05
2023-01-08T05:18:42.245Z,97.64
2023-01-08T05:19:42.236Z,97.29
2023-01-08T05:20:42.221Z,97.19
2023-01-08T05:21:42.212Z,96.78
2023-01-08T05:22:42.234Z,96.57
2023-01-08T05:23:42.203Z,96.47
2023-01-08T05:24:42.209Z,96.37
2023-01-08T05:25:42.181Z,96.47
2023-01-08T05:26:42.172Z,96.37
2023-01-08T05:27:42.175Z,96.16
2023-01-08T05:28:42.132Z,96.16
2023-01-08T05:29:42.131Z,96.16
2023-01-08T05:30:42.168Z,96.16
2023-01-08T05:31:42.112Z,96.06
2023-01-08T05:32:42.126Z,96.01
2023-01-08T05:33:42.113Z,96.01
2023-01-08T05:34:42.100Z,95.91
2023-01-08T05:35:42.102Z,96.01
2023-01-08T05:36:42.056Z,95.70
2023-01-08T05:37:42.072Z,95.50
2023-01-08T05:38:42.044Z,95.20
2023-01-08T05:39:42.083Z,95.09
2023-01-08T05:40:42.027Z,95.09
2023-01-08T05:41:42.009Z,94.99
2023-01-08T05:42:41.991Z,94.89
2023-01-08T05:43:42.007Z,94.89
2023-01-08T05:44:41.976Z,94.99
2023-01-08T05:45:41.986Z,94.99
2023-01-08T05:46:41.992Z,95.20
2023-01-08T05:47:41.947Z,95.29
2023-01-08T05:48:41.929Z,95.20
2023-01-08T05:49:41.934Z,94.78
2023-01-08T05:50:41.947Z,94.78
2023-01-08T05:51:41.905Z,94.99
2023-01-08T05:52:41.909Z,94.68
2023-01-08T05:53:41.887Z,94.48
2023-01-08T05:54:41.890Z,94.33
2023-01-08T05:55:41.878Z,94.74
2023-01-08T05:56:41.848Z,94.64
2023-01-08T05:57:41.858Z,94.33
2023-01-08T05:58:41.831Z,94.23
2023-01-08T05:59:41.828Z,94.23
2023-01-08T06:00:41.834Z,94.33
2023-01-08T06:01:41.905Z,94.12
2023-01-08T06:02:41.897Z,93.92
2023-01-08T06:03:41.786Z,93.71
2023-01-08T06:04:41.872Z,93.71
2023-01-08T06:05:41.804Z,93.92
2023-01-08T06:06:41.766Z,94.07
2023-01-08T06:07:41.785Z,94.17
2023-01-08T06:08:41.733Z,94.27
2023-01-08T06:09:41.725Z,94.37
2023-01-08T06:10:41.733Z,94.78
2023-01-08T06:11:41.713Z,94.99
2023-01-08T06:12:41.695Z,94.89
2023-01-08T06:13:41.707Z,94.78
2023-01-08T06:14:41.671Z,94.68
2023-01-08T06:15:41.745Z,94.68
2023-01-08T06:16:41.673Z,94.78
2023-01-08T06:17:41.636Z,94.68
2023-01-08T06:18:41.631Z,94.68
2023-01-08T06:19:41.625Z,94.78
2023-01-08T06:20:41.606Z,94.83
2023-01-08T06:21:41.631Z,94.93
2023-01-08T06:22:41.588Z,94.93
2023-01-08T06:23:41.587Z,95.14
2023-01-08T06:24:41.577Z,95.03
2023-01-08T06:25:41.581Z,95.09
2023-01-08T06:26:41.567Z,95.14
2023-01-08T06:27:41.563Z,95.34
2023-01-08T06:28:41.522Z,95.34
2023-01-08T06:29:41.559Z,95.34
2023-01-08T06:30:41.501Z,95.34
2023-01-08T06:31:41.596Z,95.44
2023-01-08T06:32:41.555Z,95.44
2023-01-08T06:33:41.494Z,95.54
2023-01-08T06:34:41.476Z,95.65
2023-01-08T06:35:41.455Z,95.65
2023-01-08T06:36:41.488Z,95.75
2023-01-08T06:37:41.428Z,95.54
2023-01-08T06:38:41.422Z,95.54
2023-01-08T06:39:41.439Z,95.65
2023-01-08T06:40:41.404Z,95.75
2023-01-08T06:41:41.391Z,95.86
2023-01-08T06:42:41.372Z,95.86
2023-01-08T06:43:41.452Z,96.00
2023-01-08T06:44:41.387Z,96.10
2023-01-08T06:45:41.384Z,95.90
2023-01-08T06:46:41.459Z,96.00
2023-01-08T06:47:41.351Z,96.10
2023-01-08T06:48:41.336Z,95.79
2023-01-08T06:49:41.327Z,95.79
2023-01-08T06:50:41.328Z,95.95
2023-01-08T06:51:41.293Z,96.00
2023-01-08T06:52:41.272Z,96.10
2023-01-08T06:53:41.406Z,96.10
2023-01-08T06:54:41.254Z,95.90
2023-01-08T06:55:41.277Z,96.00
2023-01-08T06:56:52.927Z,96.10
2023-01-08T06:57:41.313Z,96.10
2023-01-08T06:58:41.213Z,95.69
2023-01-08T06:59:41.175Z,95.44
2023-01-08T07:00:41.138Z,95.75
2023-01-08T07:01:41.210Z,95.59
2023-01-08T07:02:41.446Z,95.54
2023-01-08T07:03:41.255Z,95.69
2023-01-08T07:04:41.131Z,95.34
2023-01-08T07:05:41.153Z,95.14
2023-01-08T07:06:41.100Z,94.93
2023-01-08T07:07:41.068Z,94.83
2023-01-08T07:08:41.051Z,94.73
2023-01-08T07:09:41.052Z,94.83
2023-01-08T07:10:41.066Z,95.03
2023-01-08T07:11:41.098Z,94.93
2023-01-08T07:12:41.024Z,94.42
2023-01-08T07:13:41.007Z,94.52
2023-01-08T07:14:41.006Z,94.42
2023-01-08T07:15:41.116Z,94.11
2023-01-08T07:16:40.975Z,94.21
2023-01-08T07:17:40.974Z,94.21
2023-01-08T07:18:40.996Z,93.90
2023-01-08T07:19:40.942Z,93.70
2023-01-08T07:20:40.933Z,94.21
2023-01-08T07:21:40.994Z,94.11
2023-01-08T07:22:40.922Z,94.32
2023-01-08T07:23:40.913Z,94.32
2023-01-08T07:24:40.927Z,94.21
2023-01-08T07:25:40.915Z,94.01
2023-01-08T07:26:40.882Z,94.62
2023-01-08T07:27:40.873Z,94.52
2023-01-08T07:28:40.873Z,94.52
2023-01-08T07:29:40.862Z,94.32
2023-01-08T07:30:40.850Z,94.21
2023-01-08T07:31:40.906Z,93.90
2023-01-08T07:32:40.811Z,94.42
2023-01-08T07:33:40.819Z,94.32
2023-01-08T07:34:40.793Z,93.90
2023-01-08T07:35:40.818Z,93.90
2023-01-08T07:36:40.775Z,93.60
2023-01-08T07:37:40.911Z,93.60
2023-01-08T07:38:40.753Z,94.21
2023-01-08T07:39:40.765Z,94.42
2023-01-08T07:40:40.733Z,94.52
2023-01-08T07:41:40.786Z,94.01
2023-01-08T07:42:40.750Z,93.70
2023-01-08T07:43:40.721Z,94.01
2023-01-08T07:44:40.697Z,94.42
2023-01-08T07:45:40.727Z,94.42
2023-01-08T07:46:40.759Z,94.42
2023-01-08T07:47:40.678Z,94.52
2023-01-08T07:48:40.660Z,94.32
2023-01-08T07:49:40.644Z,94.01
2023-01-08T07:50:41.449Z,93.90
2023-01-08T07:51:40.625Z,94.32
2023-01-08T07:52:40.629Z,94.05
2023-01-08T07:53:40.626Z,94.11
2023-01-08T07:54:40.592Z,94.15
2023-01-08T07:55:40.611Z,94.62
2023-01-08T07:56:40.575Z,94.67
2023-01-08T07:57:40.597Z,94.77
2023-01-08T07:58:40.613Z,94.87
2023-01-08T07:59:40.539Z,94.67
2023-01-08T08:00:40.547Z,94.42
2023-01-08T08:01:40.617Z,94.56
2023-01-08T08:02:40.653Z,94.67
2023-01-08T08:03:40.581Z,94.73
2023-01-08T08:04:40.505Z,94.42
2023-01-08T08:05:40.528Z,94.11
2023-01-08T08:06:40.469Z,94.67
2023-01-08T08:07:40.549Z,94.77
2023-01-08T08:08:42.193Z,94.87
2023-01-08T08:09:40.437Z,94.98
2023-01-08T08:10:40.445Z,95.18
2023-01-08T08:11:40.417Z,94.77
2023-01-08T08:12:40.425Z,94.87
2023-01-08T08:13:40.401Z,94.77
2023-01-08T08:14:40.381Z,95.39
2023-01-08T08:15:40.579Z,95.79
2023-01-08T08:16:40.367Z,95.49
2023-01-08T08:17:40.355Z,95.59
2023-01-08T08:18:40.342Z,95.59
2023-01-08T08:19:40.339Z,95.18
2023-01-08T08:20:40.353Z,95.07
2023-01-08T08:21:40.314Z,94.98
2023-01-08T08:22:40.306Z,95.34
2023-01-08T08:23:40.321Z,95.07
2023-01-08T08:24:40.293Z,95.18
2023-01-08T08:25:40.280Z,95.28
2023-01-08T08:26:40.295Z,95.39
2023-01-08T08:27:40.252Z,95.39
2023-01-08T08:28:40.253Z,95.79
2023-01-08T08:29:40.234Z,95.79
2023-01-08T08:30:42.476Z,95.28
2023-01-08T08:31:40.342Z,95.03
2023-01-08T08:32:40.249Z,95.14
2023-01-08T08:33:40.196Z,94.93
2023-01-08T08:34:40.278Z,95.34
2023-01-08T08:35:40.242Z,95.34
2023-01-08T08:36:40.195Z,95.14
2023-01-08T08:37:40.154Z,95.03
2023-01-08T08:38:40.145Z,95.03
2023-01-08T08:39:40.149Z,94.73
2023-01-08T08:40:40.227Z,95.03
2023-01-08T08:41:40.140Z,94.93
2023-01-08T08:42:40.097Z,94.83
2023-01-08T08:43:40.105Z,94.42
2023-01-08T08:44:42.648Z,94.42
2023-01-08T08:45:40.075Z,94.52
2023-01-08T08:46:40.125Z,95.07
2023-01-08T08:47:40.058Z,94.98
2023-01-08T08:48:40.054Z,94.98
2023-01-08T08:49:40.060Z,95.14
2023-01-08T08:50:40.024Z,95.03
2023-01-08T08:51:40.055Z,94.73
2023-01-08T08:52:40.036Z,94.62
2023-01-08T08:53:39.992Z,94.87
2023-01-08T08:54:39.977Z,94.77
2023-01-08T08:55:39.970Z,94.87
2023-01-08T08:56:39.964Z,94.98
2023-01-08T08:57:39.989Z,94.87
2023-01-08T08:58:39.952Z,95.07
2023-01-08T08:59:39.930Z,95.18
2023-01-08T09:00:39.908Z,94.77
2023-01-08T09:01:40.034Z,94.98
2023-01-08T09:02:40.226Z,94.98
2023-01-08T09:03:39.984Z,94.98
2023-01-08T09:04:39.901Z,95.07
2023-01-08T09:05:39.903Z,95.28
2023-01-08T09:06:39.849Z,95.59
2023-01-08T09:07:39.877Z,95.69
2023-01-08T09:08:39.895Z,95.69
2023-01-08T09:09:39.840Z,95.07
2023-01-08T09:10:39.865Z,95.39
2023-01-08T09:11:39.811Z,95.39
2023-01-08T09:12:39.802Z,95.49
2023-01-08T09:13:39.803Z,95.18
2023-01-08T09:14:39.772Z,95.18
2023-01-08T09:15:39.811Z,95.90
2023-01-08T09:16:39.831Z,95.59
2023-01-08T09:17:39.755Z,95.28
2023-01-08T09:18:39.757Z,95.39
2023-01-08T09:19:39.771Z,95.90
2023-01-08T09:20:39.734Z,95.39
2023-01-08T09:21:39.709Z,95.49
2023-01-08T09:22:39.735Z,95.18
2023-01-08T09:23:39.702Z,95.28
2023-01-08T09:24:39.678Z,95.28
2023-01-08T09:25:39.679Z,94.93
2023-01-08T09:26:39.712Z,94.83
2023-01-08T09:27:39.643Z,95.03
2023-01-08T09:28:39.698Z,95.24
2023-01-08T09:29:39.689Z,95.14
2023-01-08T09:30:39.646Z,94.73
2023-01-08T09:31:39.677Z,94.73
2023-01-08T09:32:39.588Z,94.21
2023-01-08T09:33:39.622Z,93.90
2023-01-08T09:34:39.577Z,93.70
2023-01-08T09:35:39.606Z,93.90
2023-01-08T09:36:39.606Z,94.01
2023-01-08T09:37:39.566Z,94.01
2023-01-08T09:38:39.531Z,93.80
2023-01-08T09:39:40.176Z,93.70
2023-01-08T09:40:39.532Z,93.90
2023-01-08T09:41:39.528Z,94.32
2023-01-08T09:42:39.496Z,94.42
2023-01-08T09:43:39.478Z,94.42
2023-01-08T09:44:39.516Z,94.73
2023-01-08T09:45:39.472Z,94.73
2023-01-08T09:46:39.535Z,94.83
2023-01-08T09:47:39.467Z,94.42
2023-01-08T09:48:39.473Z,94.11
2023-01-08T09:49:39.442Z,94.11
2023-01-08T09:50:39.408Z,94.21
2023-01-08T09:51:39.449Z,94.42
2023-01-08T09:52:39.401Z,94.32
2023-01-08T09:53:39.454Z,94.62
2023-01-08T09:54:39.384Z,94.11
2023-01-08T09:55:39.371Z,94.01
2023-01-08T09:56:39.351Z,93.90
2023-01-08T09:57:39.338Z,93.70
2023-01-08T09:58:39.337Z,93.90
2023-01-08T09:59:39.319Z,94.07
2023-01-08T10:00:39.389Z,93.96
2023-01-08T10:01:39.396Z,93.86
2023-01-08T10:02:39.424Z,93.96
2023-01-08T10:03:39.275Z,93.66
2023-01-08T10:04:39.269Z,93.55
2023-01-08T10:05:39.278Z,93.66
2023-01-08T10:06:39.246Z,93.35
2023-01-08T10:07:39.254Z,93.25
2023-01-08T10:08:39.229Z,93.25
2023-01-08T10:09:39.212Z,93.04
2023-01-08T10:10:39.220Z,93.04
2023-01-08T10:11:39.399Z,93.15
2023-01-08T10:12:39.181Z,93.15
2023-01-08T10:13:39.203Z,93.35
2023-01-08T10:14:39.167Z,93.45
2023-01-08T10:15:39.167Z,93.45
2023-01-08T10:16:39.167Z,93.55
2023-01-08T10:17:39.634Z,93.66
2023-01-08T10:18:39.117Z,93.76
2023-01-08T10:19:39.127Z,93.96
2023-01-08T10:20:39.117Z,93.66
2023-01-08T10:21:39.084Z,93.55
2023-01-08T10:22:39.105Z,93.66
2023-01-08T10:23:39.075Z,93.86
2023-01-08T10:24:39.067Z,93.66
2023-01-08T10:25:39.060Z,93.76
2023-01-08T10:26:39.117Z,93.76
2023-01-08T10:27:39.043Z,93.45
2023-01-08T10:28:39.075Z,93.35
2023-01-08T10:29:39.024Z,92.94
2023-01-08T10:30:39.042Z,92.83
2023-01-08T10:31:39.023Z,93.04
2023-01-08T10:32:39.034Z,93.15
2023-01-08T10:33:38.987Z,93.35
2023-01-08T10:34:38.969Z,93.35
2023-01-08T10:35:38.947Z,93.45
2023-01-08T10:36:38.960Z,93.55
2023-01-08T10:37:38.958Z,93.55
2023-01-08T10:38:38.924Z,93.55
2023-01-08T10:39:38.901Z,93.66
2023-01-08T10:40:38.902Z,93.35
2023-01-08T10:41:38.884Z,93.45
2023-01-08T10:42:38.925Z,93.55
2023-01-08T10:43:38.890Z,93.35
2023-01-08T10:44:38.852Z,93.55
2023-01-08T10:45:38.921Z,93.66
2023-01-08T10:46:38.835Z,93.66
2023-01-08T10:47:38.826Z,93.35
2023-01-08T10:48:38.838Z,93.35
2023-01-08T10:49:38.820Z,93.35
2023-01-08T10:50:38.830Z,93.35
2023-01-08T10:51:38.794Z,93.55
2023-01-08T10:52:38.823Z,93.66
2023-01-08T10:53:38.769Z,93.76
2023-01-08T10:54:38.793Z,93.66
2023-01-08T10:55:38.745Z,93.45
2023-01-08T10:56:38.747Z,93.76
2023-01-08T10:57:38.824Z,93.76
2023-01-08T10:58:38.732Z,93.55
2023-01-08T10:59:38.731Z,93.66
2023-01-08T11:00:38.756Z,93.30
2023-01-08T11:01:38.809Z,93.30
2023-01-08T11:02:39.547Z,93.55
2023-01-08T11:03:38.672Z,93.66
2023-01-08T11:04:38.692Z,93.51
2023-01-08T11:05:38.664Z,93.35
2023-01-08T11:06:38.640Z,93.25
2023-01-08T11:07:38.623Z,93.35
2023-01-08T11:08:38.617Z,93.55
2023-01-08T11:09:38.657Z,93.35
2023-01-08T11:10:38.628Z,93.45
2023-01-08T11:11:38.585Z,93.66
2023-01-08T11:12:38.582Z,93.76
2023-01-08T11:13:38.565Z,93.66
2023-01-08T11:14:38.579Z,93.55
2023-01-08T11:15:38.579Z,93.51
2023-01-08T11:16:38.573Z,93.41
2023-01-08T11:17:38.516Z,93.51
2023-01-08T11:18:38.549Z,93.20
2023-01-08T11:19:38.500Z,93.10
2023-01-08T11:20:38.513Z,93.20
2023-01-08T11:21:38.491Z,93.20
2023-01-08T11:22:38.480Z,93.41
2023-01-08T11:23:38.476Z,93.20
2023-01-08T11:24:38.462Z,93.41
2023-01-08T11:25:38.449Z,93.51
2023-01-08T11:26:38.465Z,92.79
2023-01-08T11:27:38.462Z,92.34
2023-01-08T11:28:38.462Z,92.24
2023-01-08T11:29:38.421Z,92.55
2023-01-08T11:30:38.401Z,92.44
2023-01-08T11:31:38.460Z,92.03
2023-01-08T11:32:38.411Z,91.17
2023-01-08T11:33:38.398Z,90.66
2023-01-08T11:34:38.373Z,90.36
2023-01-08T11:35:38.341Z,89.94
2023-01-08T11:36:38.336Z,89.43
2023-01-08T11:37:38.329Z,88.98
2023-01-08T11:38:38.436Z,88.78
2023-01-08T11:39:38.295Z,89.18
2023-01-08T11:40:38.289Z,89.18
2023-01-08T11:41:38.293Z,88.88
2023-01-08T11:42:38.311Z,88.57
2023-01-08T11:43:38.270Z,88.47
2023-01-08T11:44:38.294Z,87.96
2023-01-08T11:45:38.263Z,87.82
2023-01-08T11:46:38.294Z,87.82
2023-01-08T11:47:38.214Z,87.82
2023-01-08T11:48:38.212Z,87.61
2023-01-08T11:49:38.296Z,87.61
2023-01-08T11:50:38.219Z,88.12
2023-01-08T11:51:38.194Z,88.12
2023-01-08T11:52:38.174Z,88.12
2023-01-08T11:53:38.160Z,87.82
2023-01-08T11:54:38.181Z,87.51
2023-01-08T11:55:38.139Z,87.00
2023-01-08T11:56:38.146Z,86.90
2023-01-08T11:57:38.121Z,87.10
2023-01-08T11:58:38.113Z,86.90
2023-01-08T11:59:38.134Z,87.20
2023-01-08T12:00:38.123Z,87.30
2023-01-08T12:01:38.264Z,87.41
2023-01-08T12:02:38.070Z,87.30
2023-01-08T12:03:38.158Z,87.61
2023-01-08T12:04:38.081Z,87.82
2023-01-08T12:05:38.069Z,88.12
2023-01-08T12:06:38.043Z,88.68
2023-01-08T12:07:38.024Z,88.74
2023-01-08T12:08:38.031Z,88.78
2023-01-08T12:09:38.034Z,89.09
2023-01-08T12:10:38.009Z,88.88
2023-01-08T12:11:38.000Z,89.39
2023-01-08T12:12:37.977Z,89.39
2023-01-08T12:13:37.956Z,89.65
2023-01-08T12:14:38.068Z,89.04
2023-01-08T12:15:37.955Z,88.74
2023-01-08T12:16:37.952Z,88.94
2023-01-08T12:17:37.918Z,88.84
2023-01-08T12:18:37.910Z,88.47
2023-01-08T12:19:37.894Z,88.57
2023-01-08T12:20:37.929Z,88.57
2023-01-08T12:21:37.872Z,88.74
2023-01-08T12:22:37.872Z,89.45
2023-01-08T12:23:37.855Z,88.84
2023-01-08T12:24:37.880Z,88.47
2023-01-08T12:25:37.873Z,88.68
2023-01-08T12:26:37.827Z,89.45
2023-01-08T12:27:55.703Z,88.98
2023-01-08T12:28:37.881Z,88.53
2023-01-08T12:29:37.790Z,88.64
2023-01-08T12:30:37.821Z,88.94
2023-01-08T12:31:37.850Z,88.84
2023-01-08T12:32:37.783Z,88.68
2023-01-08T12:33:37.796Z,88.43
2023-01-08T12:34:37.771Z,88.47
2023-01-08T12:35:37.743Z,88.33
2023-01-08T12:36:37.741Z,88.37
2023-01-08T12:37:37.727Z,88.47
2023-01-08T12:38:37.733Z,88.57
2023-01-08T12:39:37.696Z,88.26
2023-01-08T12:40:37.705Z,87.85
2023-01-08T12:41:37.707Z,87.61
2023-01-08T12:42:37.831Z,87.82
2023-01-08T12:43:37.703Z,88.23
2023-01-08T12:44:37.658Z,88.43
2023-01-08T12:45:37.699Z,88.33
2023-01-08T12:46:37.688Z,87.92
2023-01-08T12:47:37.638Z,88.23
2023-01-08T12:48:37.669Z,88.02
2023-01-08T12:49:37.644Z,87.61
2023-01-08T12:50:37.593Z,87.30
2023-01-08T12:51:37.659Z,87.30
2023-01-08T12:52:37.599Z,87.41